Green Village, New Jersey
Current Conditions -  °F | °C
As of 11:15 PM on Sunday 25 Jan 2015 (Local Time) from KMMU Reporting Station
Overcast Overcast  
Wind Chill: 26°   Ceiling: 6000
Heat Index: 32°   Visibility: 10mi
Dew Point:   Wind: 7mph
Humidity: 32%   Direction: 10°N
Pressure: 29.98"   Gusts: NA
Location:  40.74°N, 74.45°W
Report Text: KMMU 260415Z AUTO 01006KT 10SM SCT047 OVC060 00/M15 A2998 RMK AO2
Loading
Personal Weather Stations






























Interactive Weather Map New forecast layout! Learn more

10-Day Weather Forecast

Advertisements
Track Severe Weather on mobile